Station Historical Data
Daily Summary for March 14, 2017 Units:  English    Metric   Both
« Previous Day
Next Day »
Daily Weekly Monthly Yearly Custom
  High: Low: Average:
Temperature: 20.9 °F 16.2 °F 18.6 °F
Dew Point: 17.2 °F 13.0 °F 15.3 °F
Humidity: 88% 83% 87%
Wind Speed: 12.0mph 2.0mph 5.7mph
Wind Gust: 18.0mph - -
Wind- - SSE
Pressure: 30.24 in 29.88 in -
Precipitation: 0.00 in    
Historical Graphs
 
 
Tabular Data for March 14, 2017
Time Temperature Dew Point Pressure Wind Wind Speed Wind Gust Humidity Rainfall Rate (Hourly)
00:04 17.5 °F 14.3 °F 30.24 in NE 7.0 mph 12.0 mph 87% 0.00 in
00:09 17.5 °F 14.3 °F 30.24 in NE 6.0 mph 12.0 mph 87% 0.00 in
00:14 17.5 °F 14.3 °F 30.24 in NE 6.0 mph 12.0 mph 87% 0.00 in
00:19 17.6 °F 14.4 °F 30.24 in NE 6.0 mph 12.0 mph 87% 0.00 in
00:24 17.6 °F 14.4 °F 30.24 in NE 5.0 mph 11.0 mph 87% 0.00 in
00:29 17.6 °F 14.4 °F 30.23 in NE 6.0 mph 12.0 mph 87% 0.00 in
00:34 17.6 °F 14.4 °F 30.23 in NE 6.0 mph 12.0 mph 87% 0.00 in
00:39 17.6 °F 14.4 °F 30.23 in NNE 5.0 mph 13.0 mph 87% 0.00 in
00:44 17.6 °F 14.4 °F 30.22 in NE 8.0 mph 11.0 mph 87% 0.00 in
00:49 17.7 °F 14.5 °F 30.22 in NE 11.0 mph 11.0 mph 87% 0.00 in
00:54 17.7 °F 14.5 °F 30.22 in NNE 7.0 mph 14.0 mph 87% 0.00 in
00:59 17.7 °F 14.5 °F 30.22 in NE 4.0 mph 11.0 mph 87% 0.00 in
01:04 17.7 °F 14.5 °F 30.22 in NE 6.0 mph 10.0 mph 87% 0.00 in
01:09 17.7 °F 14.5 °F 30.21 in NE 5.0 mph 10.0 mph 87% 0.00 in
01:14 17.7 °F 14.5 °F 30.21 in NE 6.0 mph 13.0 mph 87% 0.00 in
01:19 17.7 °F 14.5 °F 30.21 in NE 6.0 mph 13.0 mph 87% 0.00 in
01:24 17.7 °F 14.5 °F 30.20 in NE 6.0 mph 11.0 mph 87% 0.00 in
01:29 17.7 °F 14.5 °F 30.20 in NE 6.0 mph 11.0 mph 87% 0.00 in
01:34 17.7 °F 14.8 °F 30.20 in NE 5.0 mph 10.0 mph 88% 0.00 in
01:39 17.8 °F 14.6 °F 30.20 in NE 7.0 mph 11.0 mph 87% 0.00 in
01:44 17.8 °F 14.6 °F 30.19 in NE 7.0 mph 13.0 mph 87% 0.00 in
01:49 17.8 °F 14.6 °F 30.19 in NE 6.0 mph 13.0 mph 87% 0.00 in
01:54 17.8 °F 14.6 °F 30.19 in NE 6.0 mph 13.0 mph 87% 0.00 in
01:59 17.9 °F 14.9 °F 30.19 in NE 5.0 mph 10.0 mph 88% 0.00 in
02:04 17.9 °F 14.9 °F 30.19 in NE 10.0 mph 10.0 mph 88% 0.00 in
02:09 17.9 °F 14.9 °F 30.19 in NE 5.0 mph 11.0 mph 88% 0.00 in
02:14 18.0 °F 15.0 °F 30.19 in NE 8.0 mph 8.0 mph 88% 0.00 in
02:19 18.0 °F 15.0 °F 30.19 in NE 6.0 mph 11.0 mph 88% 0.00 in
02:24 18.0 °F 15.0 °F 30.18 in NE 5.0 mph 10.0 mph 88% 0.00 in
02:29 18.0 °F 15.0 °F 30.19 in East 6.0 mph 12.0 mph 88% 0.00 in
02:34 18.0 °F 15.0 °F 30.18 in ENE 3.0 mph 13.0 mph 88% 0.00 in
02:39 18.1 °F 15.1 °F 30.18 in NE 6.0 mph 13.0 mph 88% 0.00 in
02:44 18.1 °F 15.1 °F 30.18 in NE 6.0 mph 13.0 mph 88% 0.00 in
02:49 18.2 °F 15.2 °F 30.18 in NE 6.0 mph 13.0 mph 88% 0.00 in
02:54 18.3 °F 15.3 °F 30.18 in NE 6.0 mph 12.0 mph 88% 0.00 in
02:59 18.3 °F 15.3 °F 30.17 in NE 5.0 mph 13.0 mph 88% 0.00 in
03:04 18.4 °F 15.4 °F 30.17 in NE 7.0 mph 12.0 mph 88% 0.00 in
03:09 18.4 °F 15.4 °F 30.17 in NE 5.0 mph 11.0 mph 88% 0.00 in
03:14 18.5 °F 15.5 °F 30.17 in NE 5.0 mph 11.0 mph 88% 0.00 in
03:19 18.5 °F 15.5 °F 30.16 in NE 5.0 mph 11.0 mph 88% 0.00 in
03:24 18.6 °F 15.6 °F 30.16 in NE 6.0 mph 13.0 mph 88% 0.00 in
03:29 18.6 °F 15.6 °F 30.15 in NE 6.0 mph 10.0 mph 88% 0.00 in
03:34 18.7 °F 15.7 °F 30.15 in NE 5.0 mph 8.0 mph 88% 0.00 in
03:39 18.8 °F 15.8 °F 30.15 in NE 3.0 mph 13.0 mph 88% 0.00 in
03:44 18.8 °F 15.8 °F 30.14 in NE 3.0 mph 9.0 mph 88% 0.00 in
03:49 18.8 °F 15.8 °F 30.14 in NE 2.0 mph 9.0 mph 88% 0.00 in
03:54 18.8 °F 15.8 °F 30.14 in NE 5.0 mph 13.0 mph 88% 0.00 in
03:59 18.8 °F 15.8 °F 30.13 in NE 6.0 mph 13.0 mph 88% 0.00 in
04:04 18.8 °F 15.8 °F 30.13 in NE 6.0 mph 12.0 mph 88% 0.00 in
04:09 18.8 °F 15.8 °F 30.13 in NE 5.0 mph 9.0 mph 88% 0.00 in
04:14 18.7 °F 15.7 °F 30.13 in NNE 6.0 mph 11.0 mph 88% 0.00 in
04:19 18.7 °F 15.7 °F 30.12 in NE 4.0 mph 12.0 mph 88% 0.00 in
04:24 18.6 °F 15.6 °F 30.12 in NE 6.0 mph 10.0 mph 88% 0.00 in
04:29 18.6 °F 15.6 °F 30.13 in NNE 4.0 mph 12.0 mph 88% 0.00 in
04:34 18.5 °F 15.5 °F 30.13 in NNE 8.0 mph 11.0 mph 88% 0.00 in
04:39 18.4 °F 15.4 °F 30.12 in NE 7.0 mph 11.0 mph 88% 0.00 in
04:44 18.4 °F 15.4 °F 30.12 in ENE 9.0 mph 11.0 mph 88% 0.00 in
04:49 18.3 °F 15.3 °F 30.12 in NE 7.0 mph 15.0 mph 88% 0.00 in
04:54 18.3 °F 15.3 °F 30.12 in NE 7.0 mph 15.0 mph 88% 0.00 in
04:59 18.2 °F 15.2 °F 30.12 in NE 6.0 mph 12.0 mph 88% 0.00 in
05:04 18.2 °F 15.2 °F 30.11 in NE 6.0 mph 12.0 mph 88% 0.00 in
05:09 18.2 °F 15.2 °F 30.11 in NE 6.0 mph 18.0 mph 88% 0.00 in
05:14 18.1 °F 15.1 °F 30.12 in NE 5.0 mph 18.0 mph 88% 0.00 in
05:19 18.1 °F 15.1 °F 30.11 in NE 5.0 mph 12.0 mph 88% 0.00 in
05:24 17.9 °F 14.9 °F 30.12 in NE 6.0 mph 16.0 mph 88% 0.00 in
05:29 17.9 °F 14.9 °F 30.11 in NNE 4.0 mph 11.0 mph 88% 0.00 in
05:34 17.8 °F 14.8 °F 30.11 in NNW 3.0 mph 10.0 mph 88% 0.00 in
05:39 17.7 °F 14.8 °F 30.11 in NE 3.0 mph 14.0 mph 88% 0.00 in
05:44 17.6 °F 14.7 °F 30.11 in NNE 5.0 mph 11.0 mph 88% 0.00 in
05:49 17.6 °F 14.7 °F 30.11 in NNE 3.0 mph 13.0 mph 88% 0.00 in
05:54 17.6 °F 14.7 °F 30.11 in NE 8.0 mph 10.0 mph 88% 0.00 in
05:59 17.5 °F 14.6 °F 30.11 in NE 5.0 mph 12.0 mph 88% 0.00 in
06:04 17.5 °F 14.6 °F 30.11 in NE 6.0 mph 12.0 mph 88% 0.00 in
06:09 17.4 °F 14.5 °F 30.11 in NE 4.0 mph 14.0 mph 88% 0.00 in
06:14 17.4 °F 14.5 °F 30.10 in NNE 5.0 mph 12.0 mph 88% 0.00 in
06:19 17.4 °F 14.5 °F 30.10 in NNE 6.0 mph 9.0 mph 88% 0.00 in
06:24 17.3 °F 14.1 °F 30.10 in NE 7.0 mph 12.0 mph 87% 0.00 in
06:29 17.3 °F 14.4 °F 30.10 in NNE 5.0 mph 10.0 mph 88% 0.00 in
06:34 17.3 °F 14.4 °F 30.10 in NE 6.0 mph 15.0 mph 88% 0.00 in
06:39 17.3 °F 14.4 °F 30.10 in NE 6.0 mph 15.0 mph 88% 0.00 in
06:44 17.3 °F 14.4 °F 30.10 in NE 6.0 mph 11.0 mph 88% 0.00 in
06:49 17.3 °F 14.4 °F 30.10 in NE 5.0 mph 10.0 mph 88% 0.00 in
06:54 17.4 °F 14.5 °F 30.09 in NE 2.0 mph 11.0 mph 88% 0.00 in
06:59 17.3 °F 14.4 °F 30.09 in NNE 5.0 mph 13.0 mph 88% 0.00 in
07:04 17.3 °F 14.4 °F 30.08 in NE 6.0 mph 13.0 mph 88% 0.00 in
07:09 17.4 °F 14.5 °F 30.09 in NE 6.0 mph 11.0 mph 88% 0.00 in
07:14 17.3 °F 14.4 °F 30.08 in North 6.0 mph 10.0 mph 88% 0.00 in
07:19 17.4 °F 14.5 °F 30.08 in North 7.0 mph 10.0 mph 88% 0.00 in
07:24 17.4 °F 14.5 °F 30.08 in NE 5.0 mph 9.0 mph 88% 0.00 in
07:29 17.3 °F 14.4 °F 30.08 in North 3.0 mph 12.0 mph 88% 0.00 in
07:34 17.4 °F 14.5 °F 30.07 in NE 8.0 mph 14.0 mph 88% 0.00 in
07:39 17.4 °F 14.5 °F 30.07 in NNE 5.0 mph 14.0 mph 88% 0.00 in
07:44 17.3 °F 14.4 °F 30.07 in NNE 6.0 mph 13.0 mph 88% 0.00 in
07:49 17.3 °F 14.4 °F 30.07 in NNE 6.0 mph 11.0 mph 88% 0.00 in
07:54 17.4 °F 14.5 °F 30.07 in NNE 5.0 mph 14.0 mph 88% 0.00 in
07:59 17.5 °F 14.6 °F 30.07 in NNE 5.0 mph 14.0 mph 88% 0.00 in
08:04 17.4 °F 14.5 °F 30.07 in NNE 6.0 mph 14.0 mph 88% 0.00 in
08:09 17.5 °F 14.6 °F 30.07 in NE 7.0 mph 12.0 mph 88% 0.00 in
08:14 17.5 °F 14.6 °F 30.07 in North 4.0 mph 13.0 mph 88% 0.00 in
08:19 17.5 °F 14.6 °F 30.07 in NNE 6.0 mph 14.0 mph 88% 0.00 in
08:24 17.6 °F 14.7 °F 30.07 in NNE 4.0 mph 9.0 mph 88% 0.00 in
08:29 17.7 °F 14.8 °F 30.07 in NE 5.0 mph 10.0 mph 88% 0.00 in
08:34 17.7 °F 14.8 °F 30.07 in NNE 6.0 mph 10.0 mph 88% 0.00 in
08:39 17.7 °F 14.8 °F 30.06 in NNE 7.0 mph 14.0 mph 88% 0.00 in
08:44 17.7 °F 14.5 °F 30.06 in NNE 6.0 mph 12.0 mph 87% 0.00 in
08:49 17.8 °F 14.6 °F 30.07 in NNE 7.0 mph 13.0 mph 87% 0.00 in
08:54 17.8 °F 14.8 °F 30.06 in NNE 7.0 mph 15.0 mph 88% 0.00 in
08:59 17.8 °F 14.6 °F 30.06 in NNE 7.0 mph 15.0 mph 87% 0.00 in
09:04 17.9 °F 14.9 °F 30.06 in NNE 7.0 mph 15.0 mph 88% 0.00 in
09:09 17.9 °F 14.9 °F 30.05 in NNE 7.0 mph 15.0 mph 88% 0.00 in
09:14 18.0 °F 14.8 °F 30.05 in NNE 6.0 mph 12.0 mph 87% 0.00 in
09:19 18.0 °F 14.8 °F 30.05 in NNE 7.0 mph 11.0 mph 87% 0.00 in
09:24 18.0 °F 14.8 °F 30.05 in NNE 6.0 mph 18.0 mph 87% 0.00 in
09:29 18.1 °F 14.9 °F 30.05 in NNE 5.0 mph 11.0 mph 87% 0.00 in
09:34 18.2 °F 15.0 °F 30.05 in NE 10.0 mph 12.0 mph 87% 0.00 in
09:39 18.4 °F 15.2 °F 30.04 in NNE 7.0 mph 11.0 mph 87% 0.00 in
09:44 18.4 °F 15.2 °F 30.04 in North 7.0 mph 11.0 mph 87% 0.00 in
09:49 18.6 °F 15.4 °F 30.04 in NNE 7.0 mph 13.0 mph 87% 0.00 in
09:54 18.6 °F 15.1 °F 30.04 in NNE 7.0 mph 13.0 mph 86% 0.00 in
09:59 18.7 °F 15.2 °F 30.04 in NNE 7.0 mph 12.0 mph 86% 0.00 in
10:04 18.8 °F 15.3 °F 30.04 in NNE 7.0 mph 17.0 mph 86% 0.00 in
10:09 18.9 °F 15.4 °F 30.04 in NNE 6.0 mph 17.0 mph 86% 0.00 in
10:14 19.0 °F 15.5 °F 30.03 in NNE 7.0 mph 17.0 mph 86% 0.00 in
10:19 19.2 °F 15.7 °F 30.03 in NNE 5.0 mph 10.0 mph 86% 0.00 in
10:24 19.3 °F 15.5 °F 30.02 in NNE 4.0 mph 11.0 mph 85% 0.00 in
10:30 19.3 °F 15.5 °F 30.01 in NNE 7.0 mph 13.0 mph 85% 0.00 in
10:39 19.6 °F 15.8 °F 30.01 in NNE 6.0 mph 11.0 mph 85% 0.00 in
10:44 19.8 °F 16.0 °F 30.02 in NNE 5.0 mph 11.0 mph 85% 0.00 in
10:49 19.5 °F 15.7 °F 30.02 in NNE 9.0 mph 11.0 mph 85% 0.00 in
10:54 19.4 °F 15.6 °F 30.02 in North 8.0 mph 11.0 mph 85% 0.00 in
10:59 19.4 °F 15.6 °F 30.02 in NE 7.0 mph 14.0 mph 85% 0.00 in
11:04 19.7 °F 15.9 °F 30.02 in NNE 6.0 mph 14.0 mph 85% 0.00 in
11:09 19.8 °F 16.0 °F 30.02 in NNE 5.0 mph 12.0 mph 85% 0.00 in
11:14 19.7 °F 15.6 °F 30.01 in NNE 6.0 mph 12.0 mph 84% 0.00 in
11:19 19.7 °F 15.9 °F 30.01 in NNE 7.0 mph 13.0 mph 85% 0.00 in
11:24 19.8 °F 16.0 °F 30.01 in North 10.0 mph 11.0 mph 85% 0.00 in
11:29 19.8 °F 15.7 °F 30.00 in NNE 4.0 mph 13.0 mph 84% 0.00 in
11:34 19.9 °F 16.1 °F 30.01 in NNE 8.0 mph 9.0 mph 85% 0.00 in
11:39 20.0 °F 15.9 °F 30.01 in NNE 6.0 mph 11.0 mph 84% 0.00 in
11:44 20.1 °F 16.0 °F 30.00 in NNE 6.0 mph 11.0 mph 84% 0.00 in
11:49 20.1 °F 16.3 °F 29.99 in NNE 4.0 mph 10.0 mph 85% 0.00 in
11:54 20.0 °F 15.9 °F 30.00 in NNE 10.0 mph 13.0 mph 84% 0.00 in
11:59 19.9 °F 15.8 °F 29.99 in NNE 9.0 mph 13.0 mph 84% 0.00 in
12:04 19.9 °F 15.8 °F 29.99 in NNE 5.0 mph 13.0 mph 84% 0.00 in
12:09 20.0 °F 15.7 °F 29.99 in NNE 10.0 mph 13.0 mph 83% 0.00 in
12:14 20.1 °F 15.8 °F 29.99 in NNE 8.0 mph 13.0 mph 83% 0.00 in
12:19 20.6 °F 16.5 °F 29.99 in NNE 6.0 mph 11.0 mph 84% 0.00 in
12:24 20.6 °F 16.5 °F 29.99 in NNE 5.0 mph 14.0 mph 84% 0.00 in
12:29 20.6 °F 16.5 °F 29.99 in NNE 6.0 mph 14.0 mph 84% 0.00 in
12:34 20.5 °F 16.4 °F 29.98 in NNE 6.0 mph 13.0 mph 84% 0.00 in
12:39 20.8 °F 16.7 °F 29.98 in NNE 6.0 mph 11.0 mph 84% 0.00 in
12:44 20.9 °F 16.8 °F 29.98 in North 6.0 mph 11.0 mph 84% 0.00 in
12:49 20.5 °F 16.2 °F 29.97 in North 6.0 mph 16.0 mph 83% 0.00 in
12:54 20.7 °F 16.6 °F 29.97 in NNW 5.0 mph 13.0 mph 84% 0.00 in
12:59 20.6 °F 16.5 °F 29.97 in North 5.0 mph 10.0 mph 84% 0.00 in
13:04 20.7 °F 16.6 °F 29.97 in NNW 7.0 mph 12.0 mph 84% 0.00 in
13:09 20.7 °F 16.6 °F 29.97 in NNE 3.0 mph 12.0 mph 84% 0.00 in
13:14 20.6 °F 16.5 °F 29.96 in North 6.0 mph 12.0 mph 84% 0.00 in
13:19 20.6 °F 16.5 °F 29.96 in North 6.0 mph 15.0 mph 84% 0.00 in
13:24 20.6 °F 16.5 °F 29.96 in North 6.0 mph 15.0 mph 84% 0.00 in
13:29 20.7 °F 16.6 °F 29.96 in North 6.0 mph 13.0 mph 84% 0.00 in
13:34 20.7 °F 16.6 °F 29.95 in North 6.0 mph 13.0 mph 84% 0.00 in
13:39 20.7 °F 16.6 °F 29.95 in NNW 9.0 mph 11.0 mph 84% 0.00 in
13:44 20.5 °F 16.4 °F 29.95 in NNW 6.0 mph 17.0 mph 84% 0.00 in
13:49 20.5 °F 16.7 °F 29.95 in North 7.0 mph 17.0 mph 85% 0.00 in
13:54 20.6 °F 16.8 °F 29.95 in NNE 4.0 mph 11.0 mph 85% 0.00 in
13:59 20.6 °F 16.8 °F 29.94 in NNW 7.0 mph 13.0 mph 85% 0.00 in
14:04 20.6 °F 16.8 °F 29.94 in NNW 6.0 mph 14.0 mph 85% 0.00 in
14:09 20.6 °F 16.8 °F 29.93 in North 4.0 mph 15.0 mph 85% 0.00 in
14:14 20.5 °F 16.7 °F 29.93 in North 6.0 mph 11.0 mph 85% 0.00 in
14:19 20.6 °F 17.1 °F 29.93 in North 6.0 mph 13.0 mph 86% 0.00 in
14:24 20.7 °F 17.2 °F 29.93 in North 5.0 mph 13.0 mph 86% 0.00 in
14:29 20.6 °F 17.1 °F 29.93 in North 5.0 mph 13.0 mph 86% 0.00 in
14:34 20.6 °F 16.8 °F 29.93 in North 6.0 mph 14.0 mph 85% 0.00 in
14:39 20.6 °F 16.8 °F 29.93 in North 6.0 mph 14.0 mph 85% 0.00 in
14:44 20.4 °F 16.6 °F 29.93 in NNE 10.0 mph 14.0 mph 85% 0.00 in
14:49 20.4 °F 16.6 °F 29.93 in North 7.0 mph 16.0 mph 85% 0.00 in
14:54 20.4 °F 16.6 °F 29.93 in North 7.0 mph 16.0 mph 85% 0.00 in
14:59 20.4 °F 16.6 °F 29.93 in North 6.0 mph 15.0 mph 85% 0.00 in
15:04 20.7 °F 16.9 °F 29.93 in North 5.0 mph 13.0 mph 85% 0.00 in
15:09 20.9 °F 17.1 °F 29.93 in North 4.0 mph 11.0 mph 85% 0.00 in
15:14 20.8 °F 17.0 °F 29.93 in North 9.0 mph 13.0 mph 85% 0.00 in
15:19 20.6 °F 16.8 °F 29.93 in NNW 3.0 mph 12.0 mph 85% 0.00 in
15:24 20.6 °F 16.8 °F 29.93 in North 7.0 mph 15.0 mph 85% 0.00 in
15:29 20.6 °F 16.8 °F 29.93 in North 6.0 mph 15.0 mph 85% 0.00 in
15:34 20.5 °F 16.7 °F 29.93 in North 5.0 mph 12.0 mph 85% 0.00 in
15:39 20.5 °F 17.0 °F 29.93 in North 5.0 mph 11.0 mph 86% 0.00 in
15:44 20.3 °F 16.8 °F 29.93 in NW 5.0 mph 9.0 mph 86% 0.00 in
15:49 20.2 °F 16.7 °F 29.92 in North 3.0 mph 10.0 mph 86% 0.00 in
15:54 20.1 °F 16.6 °F 29.92 in North 6.0 mph 15.0 mph 86% 0.00 in
15:59 20.1 °F 16.6 °F 29.92 in North 6.0 mph 15.0 mph 86% 0.00 in
16:04 20.2 °F 16.7 °F 29.92 in North 6.0 mph 13.0 mph 86% 0.00 in
16:09 20.3 °F 16.8 °F 29.92 in North 6.0 mph 12.0 mph 86% 0.00 in
16:14 20.3 °F 16.8 °F 29.93 in NNE 5.0 mph 15.0 mph 86% 0.00 in
16:19 20.4 °F 16.9 °F 29.93 in North 6.0 mph 11.0 mph 86% 0.00 in
16:24 20.5 °F 17.0 °F 29.93 in NNE 5.0 mph 10.0 mph 86% 0.00 in
16:29 20.5 °F 17.0 °F 29.92 in North 5.0 mph 10.0 mph 86% 0.00 in
16:34 20.5 °F 17.0 °F 29.92 in North 6.0 mph 12.0 mph 86% 0.00 in
16:39 20.6 °F 17.1 °F 29.92 in NNW 4.0 mph 11.0 mph 86% 0.00 in
16:44 20.7 °F 17.2 °F 29.92 in NNE 3.0 mph 10.0 mph 86% 0.00 in
16:49 20.6 °F 17.1 °F 29.92 in NNE 5.0 mph 10.0 mph 86% 0.00 in
16:54 20.7 °F 17.2 °F 29.92 in ENE 4.0 mph 9.0 mph 86% 0.00 in
16:59 20.6 °F 17.1 °F 29.92 in NW 9.0 mph 11.0 mph 86% 0.00 in
17:04 20.4 °F 16.9 °F 29.92 in North 7.0 mph 18.0 mph 86% 0.00 in
17:09 20.3 °F 16.8 °F 29.91 in North 8.0 mph 18.0 mph 86% 0.00 in
17:14 20.2 °F 16.7 °F 29.91 in North 7.0 mph 15.0 mph 86% 0.00 in
17:19 20.2 °F 16.7 °F 29.92 in North 7.0 mph 15.0 mph 86% 0.00 in
17:24 20.2 °F 16.7 °F 29.92 in North 3.0 mph 8.0 mph 86% 0.00 in
17:29 20.2 °F 17.0 °F 29.91 in NNE 12.0 mph 13.0 mph 87% 0.00 in
17:34 20.1 °F 16.6 °F 29.91 in North 6.0 mph 16.0 mph 86% 0.00 in
17:39 19.9 °F 16.4 °F 29.92 in NNE 7.0 mph 10.0 mph 86% 0.00 in
17:44 19.8 °F 16.6 °F 29.92 in NNW 7.0 mph 11.0 mph 87% 0.00 in
17:49 19.8 °F 16.6 °F 29.92 in North 5.0 mph 8.0 mph 87% 0.00 in
17:54 19.6 °F 16.4 °F 29.92 in NNW 6.0 mph 11.0 mph 87% 0.00 in
17:59 19.5 °F 16.3 °F 29.92 in NW 5.0 mph 11.0 mph 87% 0.00 in
18:04 19.3 °F 16.1 °F 29.92 in NNW 7.0 mph 13.0 mph 87% 0.00 in
18:09 19.2 °F 16.0 °F 29.92 in NNW 7.0 mph 15.0 mph 87% 0.00 in
18:14 19.1 °F 15.9 °F 29.92 in NNW 6.0 mph 15.0 mph 87% 0.00 in
18:19 19.1 °F 15.9 °F 29.92 in NNW 5.0 mph 14.0 mph 87% 0.00 in
18:24 19.0 °F 15.8 °F 29.92 in NNW 5.0 mph 10.0 mph 87% 0.00 in
18:29 19.0 °F 15.8 °F 29.92 in NNW 5.0 mph 10.0 mph 87% 0.00 in
18:34 18.9 °F 15.7 °F 29.92 in NNW 5.0 mph 10.0 mph 87% 0.00 in
18:39 18.9 °F 15.7 °F 29.92 in NNW 6.0 mph 9.0 mph 87% 0.00 in
18:44 18.8 °F 15.6 °F 29.93 in NNW 6.0 mph 15.0 mph 87% 0.00 in
18:49 18.8 °F 15.6 °F 29.93 in NNW 6.0 mph 13.0 mph 87% 0.00 in
18:54 18.7 °F 15.5 °F 29.93 in NNW 2.0 mph 9.0 mph 87% 0.00 in
18:59 18.6 °F 15.6 °F 29.93 in WNW 6.0 mph 12.0 mph 88% 0.00 in
19:04 18.4 °F 15.2 °F 29.93 in NNW 8.0 mph 14.0 mph 87% 0.00 in
19:09 18.2 °F 15.0 °F 29.93 in NNW 6.0 mph 14.0 mph 87% 0.00 in
19:14 18.2 °F 15.2 °F 29.93 in NNW 5.0 mph 11.0 mph 88% 0.00 in
19:19 18.0 °F 15.0 °F 29.93 in NNW 5.0 mph 11.0 mph 88% 0.00 in
19:24 18.0 °F 15.0 °F 29.93 in NNW 5.0 mph 10.0 mph 88% 0.00 in
19:29 17.9 °F 14.9 °F 29.93 in NNW 4.0 mph 10.0 mph 88% 0.00 in
19:34 17.9 °F 14.9 °F 29.93 in WNW 3.0 mph 9.0 mph 88% 0.00 in
19:39 17.8 °F 14.8 °F 29.93 in NNW 5.0 mph 12.0 mph 88% 0.00 in
19:44 17.7 °F 14.8 °F 29.93 in NW 5.0 mph 14.0 mph 88% 0.00 in
19:49 17.7 °F 14.8 °F 29.93 in North 10.0 mph 13.0 mph 88% 0.00 in
19:54 17.7 °F 14.8 °F 29.93 in NNW 2.0 mph 10.0 mph 88% 0.00 in
19:59 17.7 °F 14.8 °F 29.93 in North 3.0 mph 9.0 mph 88% 0.00 in
20:04 17.6 °F 14.7 °F 29.94 in NNW 4.0 mph 10.0 mph 88% 0.00 in
20:09 17.6 °F 14.7 °F 29.93 in NW 5.0 mph 10.0 mph 88% 0.00 in
20:14 17.6 °F 14.7 °F 29.93 in NNW 5.0 mph 12.0 mph 88% 0.00 in
20:19 17.6 °F 14.7 °F 29.94 in NNW 5.0 mph 12.0 mph 88% 0.00 in
20:24 17.5 °F 14.6 °F 29.93 in NNW 5.0 mph 11.0 mph 88% 0.00 in
20:29 17.6 °F 14.7 °F 29.94 in NNW 5.0 mph 11.0 mph 88% 0.00 in
20:34 17.6 °F 14.7 °F 29.93 in NW 4.0 mph 9.0 mph 88% 0.00 in
20:39 17.5 °F 14.6 °F 29.93 in NW 5.0 mph 10.0 mph 88% 0.00 in
20:44 17.5 °F 14.6 °F 29.93 in NW 5.0 mph 10.0 mph 88% 0.00 in
20:49 17.5 °F 14.6 °F 29.94 in NNW 6.0 mph 10.0 mph 88% 0.00 in
20:54 17.4 °F 14.5 °F 29.94 in North 6.0 mph 8.0 mph 88% 0.00 in
20:59 17.3 °F 14.4 °F 29.94 in North 3.0 mph 10.0 mph 88% 0.00 in
21:04 17.3 °F 14.4 °F 29.94 in NW 6.0 mph 11.0 mph 88% 0.00 in
21:09 17.4 °F 14.5 °F 29.93 in NW 2.0 mph 9.0 mph 88% 0.00 in
21:14 17.3 °F 14.4 °F 29.93 in North 3.0 mph 9.0 mph 88% 0.00 in
21:19 17.3 °F 14.4 °F 29.93 in NNW 4.0 mph 9.0 mph 88% 0.00 in
21:24 17.3 °F 14.4 °F 29.93 in NW 5.0 mph 11.0 mph 88% 0.00 in
21:29 17.3 °F 14.4 °F 29.93 in NNW 5.0 mph 11.0 mph 88% 0.00 in
21:34 17.2 °F 14.3 °F 29.93 in NNW 6.0 mph 11.0 mph 88% 0.00 in
21:39 17.1 °F 14.2 °F 29.93 in NW 6.0 mph 13.0 mph 88% 0.00 in
21:44 17.0 °F 14.1 °F 29.93 in NW 6.0 mph 14.0 mph 88% 0.00 in
21:49 17.0 °F 14.1 °F 29.93 in NW 7.0 mph 11.0 mph 88% 0.00 in
21:54 17.0 °F 14.1 °F 29.93 in NNW 4.0 mph 14.0 mph 88% 0.00 in
21:59 17.0 °F 14.1 °F 29.92 in NNW 4.0 mph 13.0 mph 88% 0.00 in
22:04 17.0 °F 14.1 °F 29.92 in North 5.0 mph 9.0 mph 88% 0.00 in
22:09 17.0 °F 14.1 °F 29.92 in NNW 4.0 mph 8.0 mph 88% 0.00 in
22:14 16.9 °F 14.0 °F 29.92 in NNW 6.0 mph 11.0 mph 88% 0.00 in
22:19 16.9 °F 14.0 °F 29.92 in NNW 5.0 mph 10.0 mph 88% 0.00 in
22:24 16.9 °F 14.0 °F 29.92 in NNW 5.0 mph 10.0 mph 88% 0.00 in
22:29 16.8 °F 13.9 °F 29.92 in NNW 5.0 mph 10.0 mph 88% 0.00 in
22:34 16.8 °F 13.9 °F 29.92 in NNW 6.0 mph 12.0 mph 88% 0.00 in
22:39 16.8 °F 13.9 °F 29.92 in NNW 6.0 mph 14.0 mph 88% 0.00 in
22:44 16.7 °F 13.8 °F 29.91 in NNW 6.0 mph 14.0 mph 88% 0.00 in
22:49 16.7 °F 13.5 °F 29.91 in North 4.0 mph 17.0 mph 87% 0.00 in
22:54 16.6 °F 13.7 °F 29.91 in NNW 2.0 mph 16.0 mph 88% 0.00 in
22:59 16.6 °F 13.4 °F 29.91 in NNW 5.0 mph 16.0 mph 87% 0.00 in
23:04 16.5 °F 13.3 °F 29.91 in North 6.0 mph 12.0 mph 87% 0.00 in
23:09 16.5 °F 13.3 °F 29.90 in NNW 5.0 mph 10.0 mph 87% 0.00 in
23:14 16.5 °F 13.3 °F 29.90 in NNW 2.0 mph 11.0 mph 87% 0.00 in
23:19 16.5 °F 13.3 °F 29.90 in NNW 4.0 mph 11.0 mph 87% 0.00 in
23:24 16.4 °F 13.2 °F 29.90 in NW 5.0 mph 10.0 mph 87% 0.00 in
23:29 16.4 °F 13.2 °F 29.90 in NNW 5.0 mph 13.0 mph 87% 0.00 in
23:34 16.4 °F 13.2 °F 29.90 in NW 7.0 mph 14.0 mph 87% 0.00 in
23:39 16.4 °F 13.2 °F 29.89 in NW 7.0 mph 14.0 mph 87% 0.00 in
23:44 16.3 °F 13.1 °F 29.89 in NW 6.0 mph 12.0 mph 87% 0.00 in
23:49 16.2 °F 13.0 °F 29.89 in NNW 6.0 mph 16.0 mph 87% 0.00 in
23:54 16.2 °F 13.0 °F 29.89 in NNW 7.0 mph 16.0 mph 87% 0.00 in
23:59 16.2 °F 13.0 °F 29.88 in WNW 8.0 mph 10.0 mph 87% 0.00 in
Buffalo, New York, USA
Compliments of Weather Underground - 2.5 mb